Okolona, Kentucky
Current Conditions -  °F | °C
As of 2:56 PM on Monday 22 Dec 2014 (Local Time) from KSDF Reporting Station
Overcast Overcast  
Wind Chill: 52°   Ceiling: 9500
Heat Index: 52°   Visibility: 10mi
Dew Point: 42°   Wind: 12mph
Humidity: 69%   Direction: 140°SE
Pressure: 29.79"   Gusts: NA
Location:  38.14°N, 85.69°W
Report Text: KSDF 221956Z 14010KT 10SM SCT032 SCT065 OVC095 11/06 A2979 RMK AO2 SLP090 T01110056
Loading
Personal Weather Stations






























Interactive Weather Map New forecast layout! Learn more

10-Day Weather Forecast

Advertisements
Track Severe Weather on mobile